sensor_id;sensor_type;location;lat;lon;timestamp;pressure;altitude;pressure_sealevel;temperature
17716;BMP280;50159;49.426;11.182;2022-07-25T00:00:27;97535.47;;;20.44
17716;BMP280;50159;49.426;11.182;2022-07-25T00:02:56;97526.22;;;20.41
17716;BMP280;50159;49.426;11.182;2022-07-25T00:05:24;97524.94;;;20.37
17716;BMP280;50159;49.426;11.182;2022-07-25T00:07:51;97532.59;;;20.32
17716;BMP280;50159;49.426;11.182;2022-07-25T00:10:18;97516.13;;;20.30
17716;BMP280;50159;49.426;11.182;2022-07-25T00:12:45;97520.75;;;20.28
17716;BMP280;50159;49.426;11.182;2022-07-25T00:15:12;97522.75;;;20.26
17716;BMP280;50159;49.426;11.182;2022-07-25T00:17:39;97522.94;;;20.24
17716;BMP280;50159;49.426;11.182;2022-07-25T00:20:07;97518.22;;;20.20
17716;BMP280;50159;49.426;11.182;2022-07-25T00:22:34;97525.50;;;20.18
17716;BMP280;50159;49.426;11.182;2022-07-25T00:25:01;97528.31;;;20.17
17716;BMP280;50159;49.426;11.182;2022-07-25T00:27:28;97522.75;;;20.12
17716;BMP280;50159;49.426;11.182;2022-07-25T00:29:55;97521.28;;;20.09
17716;BMP280;50159;49.426;11.182;2022-07-25T00:32:22;97521.66;;;20.06
17716;BMP280;50159;49.426;11.182;2022-07-25T00:34:49;97520.72;;;19.99
17716;BMP280;50159;49.426;11.182;2022-07-25T00:37:16;97526.38;;;19.97
17716;BMP280;50159;49.426;11.182;2022-07-25T00:39:44;97525.13;;;19.93
17716;BMP280;50159;49.426;11.182;2022-07-25T00:42:13;97531.53;;;19.90
17716;BMP280;50159;49.426;11.182;2022-07-25T00:44:41;97517.72;;;19.88
17716;BMP280;50159;49.426;11.182;2022-07-25T00:47:08;97523.16;;;19.87
17716;BMP280;50159;49.426;11.182;2022-07-25T00:49:37;97523.34;;;19.85
17716;BMP280;50159;49.426;11.182;2022-07-25T00:52:05;97523.53;;;19.84
17716;BMP280;50159;49.426;11.182;2022-07-25T00:54:32;97520.25;;;19.82
17716;BMP280;50159;49.426;11.182;2022-07-25T00:56:59;97520.09;;;19.83
17716;BMP280;50159;49.426;11.182;2022-07-25T00:59:27;97516.63;;;19.83
17716;BMP280;50159;49.426;11.182;2022-07-25T01:01:55;97514.97;;;19.82
17716;BMP280;50159;49.426;11.182;2022-07-25T01:04:22;97514.34;;;19.80
17716;BMP280;50159;49.426;11.182;2022-07-25T01:06:50;97512.72;;;19.79
17716;BMP280;50159;49.426;11.182;2022-07-25T01:09:19;97511.03;;;19.78
17716;BMP280;50159;49.426;11.182;2022-07-25T01:11:46;97513.69;;;19.78
17716;BMP280;50159;49.426;11.182;2022-07-25T01:14:13;97500.50;;;19.78
17716;BMP280;50159;49.426;11.182;2022-07-25T01:16:40;97506.94;;;19.75
17716;BMP280;50159;49.426;11.182;2022-07-25T01:19:07;97508.13;;;19.73
17716;BMP280;50159;49.426;11.182;2022-07-25T01:21:40;97503.84;;;19.72
17716;BMP280;50159;49.426;11.182;2022-07-25T01:24:08;97506.50;;;19.72
17716;BMP280;50159;49.426;11.182;2022-07-25T01:26:36;97500.75;;;19.69
17716;BMP280;50159;49.426;11.182;2022-07-25T01:29:03;97501.94;;;19.66
17716;BMP280;50159;49.426;11.182;2022-07-25T01:31:30;97500.63;;;19.62
17716;BMP280;50159;49.426;11.182;2022-07-25T01:33:57;97496.06;;;19.56
17716;BMP280;50159;49.426;11.182;2022-07-25T01:36:24;97493.94;;;19.52
17716;BMP280;50159;49.426;11.182;2022-07-25T01:38:51;97491.84;;;19.48
17716;BMP280;50159;49.426;11.182;2022-07-25T01:41:20;97490.22;;;19.47
17716;BMP280;50159;49.426;11.182;2022-07-25T01:43:48;97478.66;;;19.48
17716;BMP280;50159;49.426;11.182;2022-07-25T01:46:15;97477.03;;;19.47
17716;BMP280;50159;49.426;11.182;2022-07-25T01:48:42;97479.19;;;19.43
17716;BMP280;50159;49.426;11.182;2022-07-25T01:51:09;97475.09;;;19.41
17716;BMP280;50159;49.426;11.182;2022-07-25T01:53:36;97477.06;;;19.39
17716;BMP280;50159;49.426;11.182;2022-07-25T01:56:08;97480.72;;;19.38
17716;BMP280;50159;49.426;11.182;2022-07-25T01:58:36;97475.44;;;19.38
17716;BMP280;50159;49.426;11.182;2022-07-25T02:01:03;97478.44;;;19.35
17716;BMP280;50159;49.426;11.182;2022-07-25T02:03:31;97482.25;;;19.32
17716;BMP280;50159;49.426;11.182;2022-07-25T02:06:08;97476.53;;;19.29
17716;BMP280;50159;49.426;11.182;2022-07-25T02:08:35;97475.22;;;19.25
17716;BMP280;50159;49.426;11.182;2022-07-25T02:11:02;97476.56;;;19.21
17716;BMP280;50159;49.426;11.182;2022-07-25T02:13:29;97470.03;;;19.17
17716;BMP280;50159;49.426;11.182;2022-07-25T02:15:56;97468.38;;;19.16
17716;BMP280;50159;49.426;11.182;2022-07-25T02:18:22;97468.72;;;19.13
17716;BMP280;50159;49.426;11.182;2022-07-25T02:20:49;97459.16;;;19.12
17716;BMP280;50159;49.426;11.182;2022-07-25T02:23:16;97464.44;;;19.12
17716;BMP280;50159;49.426;11.182;2022-07-25T02:25:43;97461.16;;;19.10
17716;BMP280;50159;49.426;11.182;2022-07-25T02:28:10;97473.34;;;19.11
17716;BMP280;50159;49.426;11.182;2022-07-25T02:30:37;97465.63;;;19.10
17716;BMP280;50159;49.426;11.182;2022-07-25T02:33:04;97465.16;;;19.07
17716;BMP280;50159;49.426;11.182;2022-07-25T02:35:31;97471.63;;;19.04
17716;BMP280;50159;49.426;11.182;2022-07-25T02:37:58;97474.41;;;19.03
17716;BMP280;50159;49.426;11.182;2022-07-25T02:40:25;97470.47;;;18.99
17716;BMP280;50159;49.426;11.182;2022-07-25T02:42:52;97466.56;;;18.95
17716;BMP280;50159;49.426;11.182;2022-07-25T02:45:19;97460.97;;;18.90
17716;BMP280;50159;49.426;11.182;2022-07-25T02:47:46;97466.78;;;18.85
17716;BMP280;50159;49.426;11.182;2022-07-25T02:50:13;97469.97;;;18.81
17716;BMP280;50159;49.426;11.182;2022-07-25T02:52:41;97467.66;;;18.78
17716;BMP280;50159;49.426;11.182;2022-07-25T02:55:10;97473.22;;;18.75
17716;BMP280;50159;49.426;11.182;2022-07-25T02:57:37;97473.59;;;18.72
17716;BMP280;50159;49.426;11.182;2022-07-25T03:00:05;97480.84;;;18.70
17716;BMP280;50159;49.426;11.182;2022-07-25T03:02:33;97475.94;;;18.67
17716;BMP280;50159;49.426;11.182;2022-07-25T03:05:00;97483.03;;;18.67
17716;BMP280;50159;49.426;11.182;2022-07-25T03:07:27;97472.81;;;18.64
17716;BMP280;50159;49.426;11.182;2022-07-25T03:09:53;97481.72;;;18.63
17716;BMP280;50159;49.426;11.182;2022-07-25T03:12:20;97479.25;;;18.61
17716;BMP280;50159;49.426;11.182;2022-07-25T03:14:47;97478.59;;;18.60
17716;BMP280;50159;49.426;11.182;2022-07-25T03:17:14;97481.25;;;18.60
17716;BMP280;50159;49.426;11.182;2022-07-25T03:19:40;97479.59;;;18.59
17716;BMP280;50159;49.426;11.182;2022-07-25T03:22:07;97478.97;;;18.57
17716;BMP280;50159;49.426;11.182;2022-07-25T03:24:34;97477.63;;;18.53
17716;BMP280;50159;49.426;11.182;2022-07-25T03:27:01;97482.25;;;18.51
17716;BMP280;50159;49.426;11.182;2022-07-25T03:29:28;97480.63;;;18.50
17716;BMP280;50159;49.426;11.182;2022-07-25T03:31:55;97470.44;;;18.47
17716;BMP280;50159;49.426;11.182;2022-07-25T03:34:22;97468.34;;;18.42
17716;BMP280;50159;49.426;11.182;2022-07-25T03:36:49;97475.72;;;18.39
17716;BMP280;50159;49.426;11.182;2022-07-25T03:39:16;97461.28;;;18.35
17716;BMP280;50159;49.426;11.182;2022-07-25T03:41:43;97469.34;;;18.34
17716;BMP280;50159;49.426;11.182;2022-07-25T03:44:09;97463.63;;;18.30
17716;BMP280;50159;49.426;11.182;2022-07-25T03:46:36;97463.94;;;18.27
17716;BMP280;50159;49.426;11.182;2022-07-25T03:49:03;97459.66;;;18.26
17716;BMP280;50159;49.426;11.182;2022-07-25T03:51:30;97458.03;;;18.25
17716;BMP280;50159;49.426;11.182;2022-07-25T03:53:57;97458.03;;;18.25
17716;BMP280;50159;49.426;11.182;2022-07-25T03:56:37;97454.09;;;18.21
17716;BMP280;50159;49.426;11.182;2022-07-25T03:59:12;97447.19;;;18.20
17716;BMP280;50159;49.426;11.182;2022-07-25T04:01:40;97455.09;;;18.20
17716;BMP280;50159;49.426;11.182;2022-07-25T04:04:08;97434.22;;;18.19
17716;BMP280;50159;49.426;11.182;2022-07-25T04:06:37;97443.94;;;18.18
17716;BMP280;50159;49.426;11.182;2022-07-25T04:09:06;97440.31;;;18.19
17716;BMP280;50159;49.426;11.182;2022-07-25T04:11:33;97434.22;;;18.19
17716;BMP280;50159;49.426;11.182;2022-07-25T04:14:01;97443.56;;;18.21
17716;BMP280;50159;49.426;11.182;2022-07-25T04:16:30;97443.41;;;18.23
17716;BMP280;50159;49.426;11.182;2022-07-25T04:18:57;97441.59;;;18.23
17716;BMP280;50159;49.426;11.182;2022-07-25T04:21:26;97445.88;;;18.24
17716;BMP280;50159;49.426;11.182;2022-07-25T04:23:52;97436.66;;;18.28
17716;BMP280;50159;49.426;11.182;2022-07-25T04:26:19;97433.03;;;18.29
17716;BMP280;50159;49.426;11.182;2022-07-25T04:28:46;97435.47;;;18.31
17716;BMP280;50159;49.426;11.182;2022-07-25T04:31:14;97422.13;;;18.32
17716;BMP280;50159;49.426;11.182;2022-07-25T04:33:41;97414.69;;;18.36
17716;BMP280;50159;49.426;11.182;2022-07-25T04:36:08;97425.69;;;18.39
17716;BMP280;50159;49.426;11.182;2022-07-25T04:38:35;97419.13;;;18.43
17716;BMP280;50159;49.426;11.182;2022-07-25T04:41:03;97417.78;;;18.47
17716;BMP280;50159;49.426;11.182;2022-07-25T04:43:30;97418.22;;;18.50
17716;BMP280;50159;49.426;11.182;2022-07-25T04:45:57;97421.38;;;18.54
17716;BMP280;50159;49.426;11.182;2022-07-25T04:48:24;97420.47;;;18.61
17716;BMP280;50159;49.426;11.182;2022-07-25T04:50:51;97424.25;;;18.66
17716;BMP280;50159;49.426;11.182;2022-07-25T04:53:20;97424.34;;;18.73
17716;BMP280;50159;49.426;11.182;2022-07-25T04:55:47;97419.88;;;18.81
17716;BMP280;50159;49.426;11.182;2022-07-25T04:58:14;97418.19;;;18.88
17716;BMP280;50159;49.426;11.182;2022-07-25T05:00:41;97426.03;;;18.96
17716;BMP280;50159;49.426;11.182;2022-07-25T05:03:08;97424.16;;;19.04
17716;BMP280;50159;49.426;11.182;2022-07-25T05:05:35;97430.81;;;19.14
17716;BMP280;50159;49.426;11.182;2022-07-25T05:08:02;97427.13;;;19.23
17716;BMP280;50159;49.426;11.182;2022-07-25T05:10:29;97417.97;;;19.33
17716;BMP280;50159;49.426;11.182;2022-07-25T05:12:56;97416.91;;;19.42
17716;BMP280;50159;49.426;11.182;2022-07-25T05:15:24;97414.34;;;19.49
17716;BMP280;50159;49.426;11.182;2022-07-25T05:17:51;97406.38;;;19.56
17716;BMP280;50159;49.426;11.182;2022-07-25T05:20:18;97398.38;;;19.64
17716;BMP280;50159;49.426;11.182;2022-07-25T05:22:51;97397.94;;;19.75
17716;BMP280;50159;49.426;11.182;2022-07-25T05:25:18;97388.75;;;19.85
17716;BMP280;50159;49.426;11.182;2022-07-25T05:27:45;97391.09;;;19.95
17716;BMP280;50159;49.426;11.182;2022-07-25T05:30:13;97386.38;;;20.04
17716;BMP280;50159;49.426;11.182;2022-07-25T05:32:41;97392.63;;;20.18
17716;BMP280;50159;49.426;11.182;2022-07-25T05:35:09;97390.16;;;20.30
17716;BMP280;50159;49.426;11.182;2022-07-25T05:37:36;97387.75;;;20.49
17716;BMP280;50159;49.426;11.182;2022-07-25T05:40:05;97395.72;;;20.70
17716;BMP280;50159;49.426;11.182;2022-07-25T05:42:33;97392.91;;;20.92
17716;BMP280;50159;49.426;11.182;2022-07-25T05:45:00;97388.00;;;21.16
17716;BMP280;50159;49.426;11.182;2022-07-25T05:47:27;97385.63;;;21.41
17716;BMP280;50159;49.426;11.182;2022-07-25T05:49:54;97392.53;;;21.69
17716;BMP280;50159;49.426;11.182;2022-07-25T05:52:21;97391.88;;;21.94
17716;BMP280;50159;49.426;11.182;2022-07-25T05:54:48;97389.97;;;22.15
17716;BMP280;50159;49.426;11.182;2022-07-25T05:57:16;97391.69;;;22.35
17716;BMP280;50159;49.426;11.182;2022-07-25T05:59:42;97379.72;;;22.52
17716;BMP280;50159;49.426;11.182;2022-07-25T06:02:09;97387.97;;;22.69
17716;BMP280;50159;49.426;11.182;2022-07-25T06:04:36;97389.44;;;22.91
17716;BMP280;50159;49.426;11.182;2022-07-25T06:07:03;97390.28;;;23.11
17716;BMP280;50159;49.426;11.182;2022-07-25T06:09:30;97375.59;;;23.27
17716;BMP280;50159;49.426;11.182;2022-07-25T06:11:57;97381.75;;;23.40
17716;BMP280;50159;49.426;11.182;2022-07-25T06:14:28;97378.06;;;23.60
17716;BMP280;50159;49.426;11.182;2022-07-25T06:16:55;97379.69;;;23.74
17716;BMP280;50159;49.426;11.182;2022-07-25T06:19:22;97379.22;;;23.90
17716;BMP280;50159;49.426;11.182;2022-07-25T06:21:49;97378.16;;;24.03
17716;BMP280;50159;49.426;11.182;2022-07-25T06:24:16;97380.00;;;24.16
17716;BMP280;50159;49.426;11.182;2022-07-25T06:26:43;97384.06;;;24.31
17716;BMP280;50159;49.426;11.182;2022-07-25T06:29:10;97378.28;;;24.40
17716;BMP280;50159;49.426;11.182;2022-07-25T06:31:37;97374.53;;;24.54
17716;BMP280;50159;49.426;11.182;2022-07-25T06:34:04;97368.31;;;24.66
17716;BMP280;50159;49.426;11.182;2022-07-25T06:36:33;97370.75;;;24.80
17716;BMP280;50159;49.426;11.182;2022-07-25T06:39:00;97371.47;;;24.94
17716;BMP280;50159;49.426;11.182;2022-07-25T06:41:28;97367.47;;;25.09
17716;BMP280;50159;49.426;11.182;2022-07-25T06:43:55;97375.59;;;25.20
17716;BMP280;50159;49.426;11.182;2022-07-25T06:46:21;97371.97;;;25.39
17716;BMP280;50159;49.426;11.182;2022-07-25T06:48:48;97368.97;;;25.53
17716;BMP280;50159;49.426;11.182;2022-07-25T06:51:15;97368.25;;;25.63
17716;BMP280;50159;49.426;11.182;2022-07-25T06:53:42;97360.53;;;25.80
17716;BMP280;50159;49.426;11.182;2022-07-25T06:56:09;97366.06;;;26.02
17716;BMP280;50159;49.426;11.182;2022-07-25T06:58:43;97360.16;;;26.18
17716;BMP280;50159;49.426;11.182;2022-07-25T07:01:10;97354.44;;;26.32
17716;BMP280;50159;49.426;11.182;2022-07-25T07:03:37;97365.16;;;26.43
17716;BMP280;50159;49.426;11.182;2022-07-25T07:06:07;97352.53;;;26.50
17716;BMP280;50159;49.426;11.182;2022-07-25T07:08:35;97348.59;;;26.52
17716;BMP280;50159;49.426;11.182;2022-07-25T07:11:03;97352.47;;;26.56
17716;BMP280;50159;49.426;11.182;2022-07-25T07:13:30;97356.63;;;26.70
17716;BMP280;50159;49.426;11.182;2022-07-25T07:15:57;97348.66;;;26.81
17716;BMP280;50159;49.426;11.182;2022-07-25T07:18:24;97341.38;;;26.88
17716;BMP280;50159;49.426;11.182;2022-07-25T07:20:52;97339.78;;;26.98
17716;BMP280;50159;49.426;11.182;2022-07-25T07:23:19;97328.06;;;27.11
17716;BMP280;50159;49.426;11.182;2022-07-25T07:25:46;97328.94;;;27.22
17716;BMP280;50159;49.426;11.182;2022-07-25T07:28:15;97335.13;;;27.34
17716;BMP280;50159;49.426;11.182;2022-07-25T07:30:42;97324.31;;;27.41
17716;BMP280;50159;49.426;11.182;2022-07-25T07:33:30;97338.16;;;27.49
17716;BMP280;50159;49.426;11.182;2022-07-25T07:36:00;97321.88;;;27.62
17716;BMP280;50159;49.426;11.182;2022-07-25T07:38:27;97325.03;;;27.70
17716;BMP280;50159;49.426;11.182;2022-07-25T07:40:54;97322.16;;;27.83
17716;BMP280;50159;49.426;11.182;2022-07-25T07:43:21;97319.00;;;27.97
17716;BMP280;50159;49.426;11.182;2022-07-25T07:45:55;97320.69;;;28.14
17716;BMP280;50159;49.426;11.182;2022-07-25T07:48:29;97314.84;;;28.28
17716;BMP280;50159;49.426;11.182;2022-07-25T07:50:58;97321.56;;;28.42
17716;BMP280;50159;49.426;11.182;2022-07-25T07:53:25;97315.59;;;28.51
17716;BMP280;50159;49.426;11.182;2022-07-25T07:56:14;97309.97;;;28.64
17716;BMP280;50159;49.426;11.182;2022-07-25T07:58:41;97317.22;;;28.79
17716;BMP280;50159;49.426;11.182;2022-07-25T08:01:08;97307.16;;;28.98
17716;BMP280;50159;49.426;11.182;2022-07-25T08:03:35;97308.41;;;29.06
17716;BMP280;50159;49.426;11.182;2022-07-25T08:06:03;97316.25;;;29.13
17716;BMP280;50159;49.426;11.182;2022-07-25T08:08:30;97304.91;;;29.22
17716;BMP280;50159;49.426;11.182;2022-07-25T08:10:58;97299.63;;;29.27
17716;BMP280;50159;49.426;11.182;2022-07-25T08:13:30;97306.88;;;29.43
17716;BMP280;50159;49.426;11.182;2022-07-25T08:16:00;97300.31;;;29.50
17716;BMP280;50159;49.426;11.182;2022-07-25T08:18:30;97285.19;;;29.60
17716;BMP280;50159;49.426;11.182;2022-07-25T08:21:01;97279.88;;;29.65
17716;BMP280;50159;49.426;11.182;2022-07-25T08:23:32;97288.16;;;29.80
17716;BMP280;50159;49.426;11.182;2022-07-25T08:26:01;97284.06;;;29.93
17716;BMP280;50159;49.426;11.182;2022-07-25T08:28:28;97286.16;;;30.08
17716;BMP280;50159;49.426;11.182;2022-07-25T08:30:55;97273.09;;;30.16
17716;BMP280;50159;49.426;11.182;2022-07-25T08:33:22;97264.63;;;30.24
17716;BMP280;50159;49.426;11.182;2022-07-25T08:35:53;97273.38;;;30.36
17716;BMP280;50159;49.426;11.182;2022-07-25T08:38:22;97273.84;;;30.54
17716;BMP280;50159;49.426;11.182;2022-07-25T08:40:50;97272.09;;;30.64
17716;BMP280;50159;49.426;11.182;2022-07-25T08:43:18;97256.88;;;30.69
17716;BMP280;50159;49.426;11.182;2022-07-25T08:45:53;97255.06;;;30.80
17716;BMP280;50159;49.426;11.182;2022-07-25T08:48:25;97257.75;;;30.80
17716;BMP280;50159;49.426;11.182;2022-07-25T08:50:53;97254.91;;;30.91
17716;BMP280;50159;49.426;11.182;2022-07-25T08:53:20;97244.81;;;31.03
17716;BMP280;50159;49.426;11.182;2022-07-25T08:56:05;97254.91;;;31.17
17716;BMP280;50159;49.426;11.182;2022-07-25T08:58:41;97246.41;;;31.29
17716;BMP280;50159;49.426;11.182;2022-07-25T09:01:13;97242.94;;;31.34
17716;BMP280;50159;49.426;11.182;2022-07-25T09:03:42;97236.84;;;31.43
17716;BMP280;50159;49.426;11.182;2022-07-25T09:06:20;97231.25;;;31.54
17716;BMP280;50159;49.426;11.182;2022-07-25T09:08:59;97230.00;;;31.62
17716;BMP280;50159;49.426;11.182;2022-07-25T09:11:29;97221.72;;;31.73
17716;BMP280;50159;49.426;11.182;2022-07-25T09:14:14;97210.97;;;31.78
17716;BMP280;50159;49.426;11.182;2022-07-25T09:16:44;97217.50;;;31.87
17716;BMP280;50159;49.426;11.182;2022-07-25T09:19:20;97212.16;;;32.01
17716;BMP280;50159;49.426;11.182;2022-07-25T09:22:06;97212.44;;;32.05
17716;BMP280;50159;49.426;11.182;2022-07-25T09:24:43;97196.91;;;32.12
17716;BMP280;50159;49.426;11.182;2022-07-25T09:27:10;97203.94;;;32.22
17716;BMP280;50159;49.426;11.182;2022-07-25T09:29:40;97202.38;;;32.36
17716;BMP280;50159;49.426;11.182;2022-07-25T09:32:20;97191.09;;;32.49
17716;BMP280;50159;49.426;11.182;2022-07-25T09:34:49;97194.31;;;32.51
17716;BMP280;50159;49.426;11.182;2022-07-25T09:37:23;97188.72;;;32.57
17716;BMP280;50159;49.426;11.182;2022-07-25T09:39:51;97186.03;;;32.62
17716;BMP280;50159;49.426;11.182;2022-07-25T09:47:35;97189.03;;;32.95
17716;BMP280;50159;49.426;11.182;2022-07-25T09:50:05;97190.09;;;32.89
17716;BMP280;50159;49.426;11.182;2022-07-25T09:52:37;97171.22;;;32.84
17716;BMP280;50159;49.426;11.182;2022-07-25T09:55:05;97172.28;;;32.93
17716;BMP280;50159;49.426;11.182;2022-07-25T09:57:33;97170.44;;;33.08
17716;BMP280;50159;49.426;11.182;2022-07-25T10:00:00;97165.81;;;33.28
17716;BMP280;50159;49.426;11.182;2022-07-25T10:02:55;97160.13;;;33.54
17716;BMP280;50159;49.426;11.182;2022-07-25T10:08:28;97153.88;;;33.73
17716;BMP280;50159;49.426;11.182;2022-07-25T10:10:55;97148.97;;;33.85
17716;BMP280;50159;49.426;11.182;2022-07-25T10:13:32;97150.09;;;33.74
17716;BMP280;50159;49.426;11.182;2022-07-25T10:16:01;97154.06;;;33.91
17716;BMP280;50159;49.426;11.182;2022-07-25T10:18:29;97156.19;;;34.04
17716;BMP280;50159;49.426;11.182;2022-07-25T10:21:17;97144.59;;;34.08
17716;BMP280;50159;49.426;11.182;2022-07-25T10:24:02;97126.97;;;34.16
17716;BMP280;50159;49.426;11.182;2022-07-25T10:26:32;97137.25;;;34.19
17716;BMP280;50159;49.426;11.182;2022-07-25T10:29:00;97126.69;;;34.17
17716;BMP280;50159;49.426;11.182;2022-07-25T10:34:01;97127.72;;;34.26
17716;BMP280;50159;49.426;11.182;2022-07-25T10:36:46;97121.94;;;34.42
17716;BMP280;50159;49.426;11.182;2022-07-25T10:39:18;97123.88;;;34.37
17716;BMP280;50159;49.426;11.182;2022-07-25T10:41:53;97122.78;;;34.38
17716;BMP280;50159;49.426;11.182;2022-07-25T10:44:20;97114.59;;;34.52
17716;BMP280;50159;49.426;11.182;2022-07-25T10:46:47;97111.41;;;34.46
17716;BMP280;50159;49.426;11.182;2022-07-25T10:49:23;97103.72;;;34.62
17716;BMP280;50159;49.426;11.182;2022-07-25T10:52:02;97109.81;;;34.77
17716;BMP280;50159;49.426;11.182;2022-07-25T10:54:34;97096.78;;;34.84
17716;BMP280;50159;49.426;11.182;2022-07-25T10:57:05;97105.66;;;34.90
17716;BMP280;50159;49.426;11.182;2022-07-25T10:59:37;97100.75;;;34.92
17716;BMP280;50159;49.426;11.182;2022-07-25T11:02:07;97095.34;;;34.96
17716;BMP280;50159;49.426;11.182;2022-07-25T11:04:35;97090.31;;;34.80
17716;BMP280;50159;49.426;11.182;2022-07-25T11:07:14;97095.84;;;34.70
17716;BMP280;50159;49.426;11.182;2022-07-25T11:09:42;97087.19;;;34.69
17716;BMP280;50159;49.426;11.182;2022-07-25T11:12:14;97084.31;;;34.88
17716;BMP280;50159;49.426;11.182;2022-07-25T11:14:42;97097.03;;;35.15
17716;BMP280;50159;49.426;11.182;2022-07-25T11:17:22;97092.22;;;35.13
17716;BMP280;50159;49.426;11.182;2022-07-25T11:20:05;97093.50;;;35.20
17716;BMP280;50159;49.426;11.182;2022-07-25T11:22:32;97074.88;;;35.41
17716;BMP280;50159;49.426;11.182;2022-07-25T11:25:01;97082.69;;;35.66
17716;BMP280;50159;49.426;11.182;2022-07-25T11:27:32;97069.75;;;35.86
17716;BMP280;50159;49.426;11.182;2022-07-25T11:30:07;97079.78;;;36.04
17716;BMP280;50159;49.426;11.182;2022-07-25T11:32:43;97067.94;;;36.00
17716;BMP280;50159;49.426;11.182;2022-07-25T11:35:13;97067.22;;;35.94
17716;BMP280;50159;49.426;11.182;2022-07-25T11:37:43;97061.06;;;36.07
17716;BMP280;50159;49.426;11.182;2022-07-25T11:40:15;97064.41;;;36.17
17716;BMP280;50159;49.426;11.182;2022-07-25T11:42:46;97056.28;;;35.99
17716;BMP280;50159;49.426;11.182;2022-07-25T11:45:29;97042.25;;;35.97
17716;BMP280;50159;49.426;11.182;2022-07-25T11:48:04;97046.13;;;36.09
17716;BMP280;50159;49.426;11.182;2022-07-25T11:50:44;97034.63;;;36.17
17716;BMP280;50159;49.426;11.182;2022-07-25T11:53:14;97025.22;;;36.33
17716;BMP280;50159;49.426;11.182;2022-07-25T11:55:42;97033.50;;;36.18
17716;BMP280;50159;49.426;11.182;2022-07-25T11:58:11;97020.22;;;36.04
17716;BMP280;50159;49.426;11.182;2022-07-25T12:00:49;97024.22;;;36.06
17716;BMP280;50159;49.426;11.182;2022-07-25T12:03:18;97009.88;;;36.24
17716;BMP280;50159;49.426;11.182;2022-07-25T12:05:49;97000.28;;;36.49
17716;BMP280;50159;49.426;11.182;2022-07-25T12:08:19;97000.22;;;36.67
17716;BMP280;50159;49.426;11.182;2022-07-25T12:10:47;97001.63;;;36.65
17716;BMP280;50159;49.426;11.182;2022-07-25T12:13:28;97004.25;;;36.70
17716;BMP280;50159;49.426;11.182;2022-07-25T12:15:57;97011.25;;;36.57
17716;BMP280;50159;49.426;11.182;2022-07-25T12:18:26;97013.56;;;36.64
17716;BMP280;50159;49.426;11.182;2022-07-25T12:20:53;97000.88;;;36.77
17716;BMP280;50159;49.426;11.182;2022-07-25T12:23:20;96998.47;;;36.76
17716;BMP280;50159;49.426;11.182;2022-07-25T12:25:48;96991.88;;;36.82
17716;BMP280;50159;49.426;11.182;2022-07-25T12:28:15;96989.38;;;36.98
17716;BMP280;50159;49.426;11.182;2022-07-25T12:30:44;96995.69;;;37.07
17716;BMP280;50159;49.426;11.182;2022-07-25T12:33:12;96983.28;;;37.20
17716;BMP280;50159;49.426;11.182;2022-07-25T12:35:43;96992.81;;;37.30
17716;BMP280;50159;49.426;11.182;2022-07-25T12:38:10;96986.56;;;37.43
17716;BMP280;50159;49.426;11.182;2022-07-25T12:40:37;96978.03;;;37.36
17716;BMP280;50159;49.426;11.182;2022-07-25T12:43:04;96975.41;;;37.31
17716;BMP280;50159;49.426;11.182;2022-07-25T12:45:31;96978.94;;;37.45
17716;BMP280;50159;49.426;11.182;2022-07-25T12:47:58;96976.53;;;37.70
17716;BMP280;50159;49.426;11.182;2022-07-25T12:50:25;96961.66;;;37.89
17716;BMP280;50159;49.426;11.182;2022-07-25T12:52:52;96966.06;;;38.12
17716;BMP280;50159;49.426;11.182;2022-07-25T12:55:22;96972.97;;;38.17
17716;BMP280;50159;49.426;11.182;2022-07-25T12:57:49;96967.19;;;38.32
17716;BMP280;50159;49.426;11.182;2022-07-25T13:00:19;96967.94;;;38.46
17716;BMP280;50159;49.426;11.182;2022-07-25T13:02:48;96953.78;;;38.57
17716;BMP280;50159;49.426;11.182;2022-07-25T13:05:18;96956.09;;;38.72
17716;BMP280;50159;49.426;11.182;2022-07-25T13:07:46;96948.19;;;38.19
17716;BMP280;50159;49.426;11.182;2022-07-25T13:10:15;96941.69;;;37.85
17716;BMP280;50159;49.426;11.182;2022-07-25T13:12:43;96957.13;;;37.50
17716;BMP280;50159;49.426;11.182;2022-07-25T13:15:10;96946.50;;;37.27
17716;BMP280;50159;49.426;11.182;2022-07-25T13:17:37;96939.72;;;37.51
17716;BMP280;50159;49.426;11.182;2022-07-25T13:20:07;96933.63;;;37.80
17716;BMP280;50159;49.426;11.182;2022-07-25T13:22:34;96938.16;;;37.85
17716;BMP280;50159;49.426;11.182;2022-07-25T13:25:00;96934.34;;;37.86
17716;BMP280;50159;49.426;11.182;2022-07-25T13:27:27;96941.53;;;38.03
17716;BMP280;50159;49.426;11.182;2022-07-25T13:29:54;96932.72;;;37.85
17716;BMP280;50159;49.426;11.182;2022-07-25T13:32:25;96921.47;;;37.78
17716;BMP280;50159;49.426;11.182;2022-07-25T13:34:53;96898.72;;;37.87
17716;BMP280;50159;49.426;11.182;2022-07-25T13:37:21;96914.69;;;37.88
17716;BMP280;50159;49.426;11.182;2022-07-25T13:39:47;96913.56;;;38.24
17716;BMP280;50159;49.426;11.182;2022-07-25T13:42:14;96916.78;;;38.48
17716;BMP280;50159;49.426;11.182;2022-07-25T13:44:41;96921.34;;;38.60
17716;BMP280;50159;49.426;11.182;2022-07-25T13:47:08;96933.00;;;38.61
17716;BMP280;50159;49.426;11.182;2022-07-25T13:49:35;96928.94;;;38.50
17716;BMP280;50159;49.426;11.182;2022-07-25T13:52:03;96927.25;;;38.62
17716;BMP280;50159;49.426;11.182;2022-07-25T13:54:30;96934.16;;;38.68
17716;BMP280;50159;49.426;11.182;2022-07-25T13:56:57;96932.94;;;38.53
17716;BMP280;50159;49.426;11.182;2022-07-25T13:59:24;96931.00;;;38.45
17716;BMP280;50159;49.426;11.182;2022-07-25T14:01:51;96933.56;;;38.50
17716;BMP280;50159;49.426;11.182;2022-07-25T14:04:18;96941.31;;;38.43
17716;BMP280;50159;49.426;11.182;2022-07-25T14:06:45;96934.31;;;38.20
17716;BMP280;50159;49.426;11.182;2022-07-25T14:09:19;96934.59;;;38.19
17716;BMP280;50159;49.426;11.182;2022-07-25T14:11:47;96935.31;;;38.24
17716;BMP280;50159;49.426;11.182;2022-07-25T14:14:14;96922.53;;;38.25
17716;BMP280;50159;49.426;11.182;2022-07-25T14:16:41;96917.09;;;38.25